Time;durP1;ratioP1;P1;durP2;ratioP2;P2;SDS_P1;SDS_P2;PMS_P1;PMS_P2;Temp;Humidity;BMP_temperature;BMP_pressure;BME280_temperature;BME280_humidity;BME280_pressure;Samples;Min_cycle;Max_cycle;Signal;HPM_P1;HPM_P2
2022/01/03 00:00:46;;;;;;;0.80;0.30;;;8.40;99.90;;;;;;5041564;28;20075;-82
2022/01/03 00:03:14;;;;;;;0.70;0.30;;;7.90;99.90;;;;;;5038529;28;20059;-82
2022/01/03 00:05:40;;;;;;;1.23;0.22;;;7.90;99.90;;;;;;5039152;28;20042;-85
2022/01/03 00:08:06;;;;;;;2.58;0.70;;;7.90;99.90;;;;;;5040366;28;20527;-86
2022/01/03 00:10:33;;;;;;;1.15;0.40;;;7.90;99.90;;;;;;5043339;28;20129;-85
2022/01/03 00:13:00;;;;;;;3.13;0.40;;;7.90;99.90;;;;;;5040336;28;20041;-83
2022/01/03 00:15:26;;;;;;;5.32;0.50;;;8.40;99.90;;;;;;5042616;28;20029;-85
2022/01/03 00:17:53;;;;;;;2.38;0.55;;;8.20;99.90;;;;;;5041531;28;20553;-83
2022/01/03 00:20:20;;;;;;;2.33;0.40;;;8.20;99.90;;;;;;5038137;28;20112;-85
2022/01/03 00:22:56;;;;;;;2.47;0.70;;;8.90;99.90;;;;;;5028418;28;20103;-85
2022/01/03 00:25:23;;;;;;;5.43;0.60;;;8.20;99.90;;;;;;5037925;28;20396;-84
2022/01/03 00:28:04;;;;;;;3.33;0.70;;;8.70;99.90;;;;;;5028239;28;20041;-85
2022/01/03 00:30:33;;;;;;;5.03;0.60;;;8.30;99.90;;;;;;5043133;28;20392;-86
2022/01/03 00:33:01;;;;;;;5.05;0.80;;;8.20;99.90;;;;;;5042225;28;20045;-85
2022/01/03 00:35:28;;;;;;;5.78;0.68;;;8.90;99.90;;;;;;5042382;28;20399;-84
2022/01/03 00:37:57;;;;;;;3.22;0.70;;;8.90;99.90;;;;;;5042287;28;20517;-85
2022/01/03 00:40:25;;;;;;;6.22;0.70;;;8.30;99.90;;;;;;5042850;28;20060;-85
2022/01/03 00:42:51;;;;;;;2.92;0.60;;;8.80;99.90;;;;;;5027740;28;20051;-83
2022/01/03 00:45:17;;;;;;;2.80;0.82;;;8.40;99.90;;;;;;5046408;28;20041;-83
2022/01/03 00:47:44;;;;;;;7.10;1.05;;;8.40;99.90;;;;;;5044049;28;20369;-84
2022/01/03 00:50:17;;;;;;;5.63;1.00;;;8.70;99.90;;;;;;5045568;28;20087;-84
2022/01/03 00:52:45;;;;;;;2.42;0.70;;;8.50;99.90;;;;;;5045053;28;20515;-82
2022/01/03 00:55:12;;;;;;;8.45;0.88;;;9.20;99.90;;;;;;5022502;28;20045;-85
2022/01/03 00:57:52;;;;;;;7.05;0.80;;;8.50;99.90;;;;;;5043115;28;20045;-85
2022/01/03 01:00:18;;;;;;;6.88;0.80;;;8.50;99.90;;;;;;5023982;28;20090;-85
2022/01/03 01:03:00;;;;;;;9.45;1.10;;;9.30;99.90;;;;;;5023868;28;20535;-84
2022/01/03 01:05:26;;;;;;;8.07;1.00;;;9.20;99.90;;;;;;5041862;28;20116;-85
2022/01/03 01:07:58;;;;;;;9.63;1.23;;;8.80;99.90;;;;;;5024873;28;20349;-85
2022/01/03 01:10:33;;;;;;;4.53;0.60;;;8.60;99.90;;;;;;5044951;28;20041;-85
2022/01/03 01:13:01;;;;;;;5.40;0.70;;;8.60;99.90;;;;;;5024287;28;20046;-86
2022/01/03 01:15:28;;;;;;;6.38;0.75;;;8.80;99.90;;;;;;5024154;28;20048;-85
2022/01/03 01:17:55;;;;;;;6.85;1.33;;;8.50;99.90;;;;;;5043885;28;20393;-84
2022/01/03 01:20:23;;;;;;;12.32;0.93;;;9.30;99.90;;;;;;5044972;28;20037;-84
2022/01/03 01:22:49;;;;;;;7.45;0.93;;;8.80;99.90;;;;;;5035725;28;20123;-84
2022/01/03 01:27:48;;;;;;;10.15;1.10;;;9.40;99.90;;;;;;5026059;28;20406;-85
2022/01/03 01:30:22;;;;;;;12.15;1.10;;;9.40;99.90;;;;;;5041108;28;20069;-84
2022/01/03 01:32:52;;;;;;;5.45;0.65;;;8.90;99.90;;;;;;5039311;28;20067;-82
2022/01/03 01:35:23;;;;;;;17.15;1.80;;;8.60;99.90;;;;;;5042545;28;20033;-84
2022/01/03 01:37:53;;;;;;;10.10;1.00;;;9.30;99.90;;;;;;5024112;28;20057;-85
2022/01/03 01:40:21;;;;;;;10.68;1.20;;;9.10;99.90;;;;;;5026533;28;20053;-85
2022/01/03 01:42:48;;;;;;;7.20;1.08;;;8.60;99.90;;;;;;5044869;28;20044;-83
2022/01/03 01:45:17;;;;;;;8.45;1.10;;;8.90;99.90;;;;;;5023934;28;20052;-84
2022/01/03 01:47:44;;;;;;;7.45;0.95;;;8.60;99.90;;;;;;5041696;28;20488;-85
2022/01/03 01:50:10;;;;;;;10.02;1.20;;;8.70;99.90;;;;;;5043710;28;20077;-82
2022/01/03 01:52:37;;;;;;;9.20;1.10;;;8.80;99.90;;;;;;5038611;28;20037;-85
2022/01/03 01:55:07;;;;;;;6.68;0.95;;;8.50;99.90;;;;;;5036251;28;20045;-86
2022/01/03 01:58:01;;;;;;;12.68;2.20;;;8.60;99.90;;;;;;5044334;28;20120;-84
2022/01/03 02:00:26;;;;;;;7.13;1.05;;;8.60;99.90;;;;;;5030961;28;20487;-85
2022/01/03 02:03:14;;;;;;;7.95;1.20;;;9.20;99.90;;;;;;5044942;28;20047;-85
2022/01/03 02:05:48;;;;;;;13.75;1.45;;;8.60;99.90;;;;;;5035444;28;20129;-84
2022/01/03 02:08:16;;;;;;;7.72;1.17;;;8.60;99.90;;;;;;5042655;28;20132;-85
2022/01/03 02:10:43;;;;;;;16.65;1.45;;;8.80;99.90;;;;;;5044061;28;20056;-84
2022/01/03 02:13:11;;;;;;;10.30;1.20;;;8.70;99.90;;;;;;5043009;28;20084;-85
2022/01/03 02:15:38;;;;;;;16.35;1.65;;;8.60;99.90;;;;;;5040274;28;20041;-84
2022/01/03 02:18:05;;;;;;;15.82;2.75;;;9.00;99.90;;;;;;5039868;28;20033;-83
2022/01/03 02:20:32;;;;;;;13.05;1.42;;;9.10;99.90;;;;;;5028782;28;20123;-85
2022/01/03 02:22:58;;;;;;;6.35;1.55;;;9.10;99.90;;;;;;5044402;28;20043;-85
2022/01/03 02:25:25;;;;;;;13.98;1.10;;;9.00;99.90;;;;;;5041087;28;20041;-82
2022/01/03 02:27:52;;;;;;;11.23;1.42;;;9.00;99.90;;;;;;5040372;28;20037;-86
2022/01/03 02:30:24;;;;;;;11.48;1.95;;;9.10;99.90;;;;;;5043792;28;20094;-82
2022/01/03 02:32:51;;;;;;;12.10;1.13;;;8.80;99.90;;;;;;5033566;28;20037;-85
2022/01/03 02:35:17;;;;;;;10.80;1.23;;;8.90;99.90;;;;;;5040675;28;20042;-85
2022/01/03 02:37:44;;;;;;;15.57;1.83;;;9.30;99.90;;;;;;5043209;28;20029;-85
2022/01/03 02:40:11;;;;;;;13.77;1.65;;;9.40;99.90;;;;;;5040055;28;20064;-85
2022/01/03 02:42:38;;;;;;;14.00;1.40;;;8.80;99.90;;;;;;5040420;28;20053;-85
2022/01/03 02:45:33;;;;;;;10.68;1.52;;;9.40;99.90;;;;;;5038428;28;20048;-84
2022/01/03 02:48:02;;;;;;;10.15;1.40;;;8.90;99.90;;;;;;4945767;29;20055;-85
2022/01/03 02:50:31;;;;;;;15.75;2.75;;;9.40;99.90;;;;;;4934523;29;20058;-85
2022/01/03 02:52:57;;;;;;;9.43;1.20;;;8.90;99.90;;;;;;4946585;29;20047;-83
2022/01/03 02:55:23;;;;;;;19.88;2.05;;;8.90;99.90;;;;;;4948383;29;20043;-82
2022/01/03 02:57:52;;;;;;;21.00;1.98;;;9.60;99.90;;;;;;4943617;29;20043;-84
2022/01/03 03:00:21;;;;;;;21.17;1.77;;;9.20;99.90;;;;;;4951412;28;20417;-84
2022/01/03 03:02:46;;;;;;;11.15;1.10;;;8.90;99.90;;;;;;4950291;29;20066;-85
2022/01/03 03:05:12;;;;;;;20.02;1.33;;;9.60;99.90;;;;;;4951456;29;20051;-84
2022/01/03 03:07:39;;;;;;;18.48;1.92;;;9.40;99.90;;;;;;4950556;29;20083;-83
2022/01/03 03:10:11;;;;;;;12.13;1.67;;;8.80;99.90;;;;;;4951170;29;20608;-85
2022/01/03 03:12:37;;;;;;;12.25;1.10;;;8.90;99.90;;;;;;4950164;29;20417;-84
2022/01/03 03:15:04;;;;;;;11.30;1.27;;;8.80;99.90;;;;;;4947294;29;20123;-84
2022/01/03 03:17:29;;;;;;;11.02;1.98;;;8.80;99.90;;;;;;4947364;29;20051;-85
2022/01/03 03:20:02;;;;;;;10.95;1.48;;;9.60;99.90;;;;;;4950768;29;20055;-84
2022/01/03 03:22:29;;;;;;;7.80;1.02;;;8.80;99.90;;;;;;4950291;29;20102;-85
2022/01/03 03:25:03;;;;;;;11.32;1.60;;;9.00;99.90;;;;;;5014908;28;20057;-85
2022/01/03 03:27:29;;;;;;;12.13;1.35;;;8.80;99.90;;;;;;5038900;28;20088;-83
2022/01/03 03:29:55;;;;;;;11.00;1.40;;;8.80;99.90;;;;;;5040061;28;20076;-83
2022/01/03 03:32:21;;;;;;;14.65;2.03;;;9.20;99.90;;;;;;5039910;28;20037;-85
2022/01/03 03:34:48;;;;;;;15.77;2.63;;;8.70;99.90;;;;;;5040422;28;20050;-84
2022/01/03 03:37:15;;;;;;;12.40;1.63;;;8.70;99.90;;;;;;5042957;28;20040;-85
2022/01/03 03:39:41;;;;;;;12.82;1.55;;;8.60;99.90;;;;;;5042501;28;20063;-83
2022/01/03 03:42:08;;;;;;;14.13;1.88;;;8.70;99.90;;;;;;5039686;28;20439;-84
2022/01/03 03:44:35;;;;;;;10.07;1.42;;;8.90;99.90;;;;;;5039637;28;20049;-84
2022/01/03 03:47:02;;;;;;;12.90;1.63;;;8.90;99.90;;;;;;5044761;28;20046;-83
2022/01/03 03:49:28;;;;;;;14.10;1.98;;;8.50;99.90;;;;;;5028654;28;20495;-83
2022/01/03 03:51:53;;;;;;;13.10;2.05;;;9.20;99.90;;;;;;5043135;28;20049;-85
2022/01/03 03:54:19;;;;;;;12.85;1.58;;;8.50;99.90;;;;;;5026079;28;20044;-84
2022/01/03 03:56:45;;;;;;;14.73;2.10;;;8.70;99.90;;;;;;5042998;28;20124;-82
2022/01/03 03:59:11;;;;;;;6.82;1.30;;;8.90;99.90;;;;;;5046221;28;20398;-82
2022/01/03 04:01:36;;;;;;;9.73;1.30;;;8.70;99.90;;;;;;5028212;28;20052;-83
2022/01/03 04:04:03;;;;;;;12.30;1.40;;;8.40;99.90;;;;;;5036582;28;20453;-83
2022/01/03 04:06:28;;;;;;;6.82;1.10;;;8.30;99.90;;;;;;5043066;28;20527;-84
2022/01/03 04:08:54;;;;;;;18.00;2.03;;;8.70;99.90;;;;;;5043036;28;20081;-83
2022/01/03 04:11:21;;;;;;;17.40;1.77;;;8.90;99.90;;;;;;5025474;28;20041;-85
2022/01/03 04:13:47;;;;;;;14.68;2.00;;;9.00;99.90;;;;;;5042262;28;20514;-86
2022/01/03 04:16:13;;;;;;;13.68;2.03;;;8.00;99.90;;;;;;5022451;28;20132;-85
2022/01/03 04:18:39;;;;;;;13.20;1.50;;;8.50;99.90;;;;;;5046180;28;20080;-84
2022/01/03 04:21:05;;;;;;;12.38;1.58;;;9.00;99.90;;;;;;5044161;28;20142;-84
2022/01/03 04:23:30;;;;;;;6.82;1.30;;;8.90;99.90;;;;;;5039256;28;20174;-84
2022/01/03 04:25:57;;;;;;;13.63;1.20;;;8.90;99.90;;;;;;5045153;28;20491;-82
2022/01/03 04:28:23;;;;;;;12.65;1.38;;;9.00;99.90;;;;;;5042299;28;20063;-85
2022/01/03 04:30:51;;;;;;;17.23;1.83;;;8.70;99.90;;;;;;5048559;28;20555;-84
2022/01/03 04:33:17;;;;;;;12.82;1.45;;;8.20;99.90;;;;;;5037439;28;20518;-84
2022/01/03 04:35:43;;;;;;;16.85;1.58;;;8.30;99.90;;;;;;5045833;28;20445;-85
2022/01/03 04:38:10;;;;;;;13.32;1.75;;;8.20;99.90;;;;;;5036866;28;20041;-84
2022/01/03 04:40:36;;;;;;;16.23;1.63;;;8.20;99.90;;;;;;5045464;28;20052;-84
2022/01/03 04:43:03;;;;;;;8.77;1.48;;;8.30;99.90;;;;;;5002561;28;20053;-83
2022/01/03 04:45:29;;;;;;;10.52;1.92;;;9.00;99.90;;;;;;5045762;28;20079;-83
2022/01/03 04:47:55;;;;;;;10.10;2.30;;;8.70;99.90;;;;;;5023585;28;20495;-83
2022/01/03 04:50:21;;;;;;;10.80;1.63;;;8.60;99.90;;;;;;5047308;28;20236;-84
2022/01/03 04:52:46;;;;;;;14.23;1.75;;;8.60;99.90;;;;;;5043091;28;20038;-85
2022/01/03 04:55:12;;;;;;;13.90;1.70;;;8.60;99.90;;;;;;5043147;28;20037;-84
2022/01/03 04:57:38;;;;;;;10.52;1.63;;;8.40;99.90;;;;;;5045255;28;20072;-85
2022/01/03 05:00:08;;;;;;;14.57;1.83;;;8.30;99.90;;;;;;5045119;28;20065;-84
2022/01/03 05:02:36;;;;;;;14.43;1.83;;;8.30;99.90;;;;;;5035485;28;20041;-86
2022/01/03 05:05:02;;;;;;;13.20;2.20;;;9.00;99.90;;;;;;5044842;28;20406;-85
2022/01/03 05:07:28;;;;;;;19.77;1.45;;;8.40;99.90;;;;;;5042559;28;20310;-86
2022/01/03 05:09:54;;;;;;;12.90;1.20;;;8.40;99.90;;;;;;5041870;28;20041;-86
2022/01/03 05:12:19;;;;;;;11.27;1.38;;;8.30;99.90;;;;;;5045080;28;20029;-85
2022/01/03 05:14:45;;;;;;;25.27;5.03;;;9.00;99.90;;;;;;5041817;28;20116;-85
2022/01/03 05:17:11;;;;;;;15.20;2.40;;;8.30;99.90;;;;;;5041819;28;20046;-85
2022/01/03 05:19:37;;;;;;;12.13;1.70;;;8.90;99.90;;;;;;5045181;28;20047;-82
2022/01/03 05:22:03;;;;;;;15.35;1.50;;;8.40;99.90;;;;;;5044915;28;20391;-85
2022/01/03 05:24:29;;;;;;;12.35;1.80;;;8.40;99.90;;;;;;5042625;28;20064;-82
2022/01/03 05:26:56;;;;;;;14.95;1.95;;;8.40;99.90;;;;;;5040253;28;20110;-85
2022/01/03 05:29:22;;;;;;;18.45;1.73;;;8.50;99.90;;;;;;5042698;28;20045;-84
2022/01/03 05:31:48;;;;;;;18.63;2.08;;;8.80;99.90;;;;;;5041607;28;20498;-82
2022/01/03 05:34:14;;;;;;;15.57;1.98;;;8.80;99.90;;;;;;5041015;28;20048;-82
2022/01/03 05:36:39;;;;;;;19.23;2.55;;;8.40;99.90;;;;;;5023914;28;20055;-83
2022/01/03 05:39:05;;;;;;;18.85;2.15;;;8.40;99.90;;;;;;5023022;28;20042;-84
2022/01/03 05:41:32;;;;;;;21.25;2.72;;;8.60;99.90;;;;;;5043015;28;20570;-84
2022/01/03 05:43:58;;;;;;;16.90;2.10;;;8.80;99.90;;;;;;5044874;28;20087;-83
2022/01/03 05:46:24;;;;;;;17.92;2.20;;;9.10;99.90;;;;;;5042782;28;20045;-85
2022/01/03 05:48:50;;;;;;;12.75;1.90;;;9.00;99.90;;;;;;5037734;28;20044;-82
2022/01/03 05:51:16;;;;;;;20.33;2.47;;;8.30;99.90;;;;;;5044606;28;20076;-82
2022/01/03 05:53:41;;;;;;;14.18;1.88;;;8.40;99.90;;;;;;5044048;28;20044;-85
2022/01/03 05:56:07;;;;;;;21.08;2.33;;;8.50;99.90;;;;;;5044293;28;20083;-84
2022/01/03 05:58:33;;;;;;;20.95;2.65;;;8.20;99.90;;;;;;5035529;28;20052;-84
2022/01/03 06:01:00;;;;;;;17.10;1.60;;;8.70;99.90;;;;;;5044178;28;20072;-84
2022/01/03 06:03:29;;;;;;;17.60;1.60;;;8.20;99.90;;;;;;5035700;28;20464;-84
2022/01/03 06:08:23;;;;;;;13.15;1.85;;;8.60;99.90;;;;;;5040185;28;20068;-82
2022/01/03 06:10:49;;;;;;;23.90;3.22;;;8.70;99.90;;;;;;5032986;28;20076;-81
2022/01/03 06:13:15;;;;;;;21.00;2.28;;;8.50;99.90;;;;;;5023776;28;20041;-84
2022/01/03 06:15:42;;;;;;;20.63;2.53;;;8.90;99.90;;;;;;5040972;28;20045;-83
2022/01/03 06:18:10;;;;;;;11.38;2.00;;;8.60;99.90;;;;;;5040462;28;20049;-83
2022/01/03 06:20:41;;;;;;;10.93;2.35;;;8.60;99.90;;;;;;5040216;28;20077;-82
2022/01/03 06:23:09;;;;;;;11.88;1.65;;;9.00;99.90;;;;;;5041017;28;20041;-84
2022/01/03 06:25:35;;;;;;;15.85;1.67;;;8.80;99.90;;;;;;5040947;28;20048;-83
2022/01/03 06:28:00;;;;;;;11.70;1.60;;;8.90;99.90;;;;;;5043747;28;20498;-84
2022/01/03 06:30:26;;;;;;;15.18;1.98;;;8.90;99.90;;;;;;5025216;28;20048;-81
2022/01/03 06:32:52;;;;;;;14.43;2.05;;;8.80;99.90;;;;;;5041192;28;20033;-84
2022/01/03 06:35:18;;;;;;;23.95;2.72;;;8.80;99.90;;;;;;5040431;28;20116;-84
2022/01/03 06:37:44;;;;;;;14.68;2.22;;;8.60;99.90;;;;;;5041995;28;20492;-84
2022/01/03 06:40:10;;;;;;;17.02;2.60;;;8.00;99.90;;;;;;5043026;28;20052;-83
2022/01/03 06:42:36;;;;;;;19.98;1.83;;;8.20;99.90;;;;;;5024399;28;20122;-83
2022/01/03 06:45:02;;;;;;;12.85;1.40;;;8.20;99.90;;;;;;5023167;28;20049;-84
2022/01/03 06:47:28;;;;;;;12.68;1.67;;;8.20;99.90;;;;;;5040097;28;20041;-82
2022/01/03 06:49:53;;;;;;;7.63;1.35;;;8.70;99.90;;;;;;5042862;28;20041;-83
2022/01/03 06:52:19;;;;;;;9.73;1.50;;;8.80;99.90;;;;;;5043694;28;20124;-82
2022/01/03 06:54:45;;;;;;;13.48;2.13;;;8.20;99.90;;;;;;5041984;28;20462;-83
2022/01/03 06:57:11;;;;;;;10.82;1.40;;;8.70;99.90;;;;;;5022305;28;20446;-83
2022/01/03 06:59:37;;;;;;;14.88;1.42;;;8.30;99.90;;;;;;5039465;28;20099;-83
2022/01/03 07:02:04;;;;;;;11.40;1.88;;;8.50;99.90;;;;;;5043582;28;20039;-83
2022/01/03 07:04:30;;;;;;;12.65;1.55;;;8.80;99.90;;;;;;5041464;28;20041;-83
2022/01/03 07:06:55;;;;;;;10.50;1.58;;;8.40;99.90;;;;;;5040098;28;20094;-83
2022/01/03 07:09:21;;;;;;;15.32;2.03;;;8.30;99.90;;;;;;5039961;28;20499;-82
2022/01/03 07:11:47;;;;;;;20.20;2.97;;;8.60;99.90;;;;;;5023357;28;20087;-86
2022/01/03 07:19:33;;;;;;;12.77;2.08;;;8.30;99.90;;;;;;5039975;28;20046;-83
2022/01/03 07:22:00;;;;;;;15.15;1.88;;;8.70;99.90;;;;;;5045648;28;20471;-84
2022/01/03 07:24:26;;;;;;;19.80;2.50;;;8.60;99.90;;;;;;5041186;28;20519;-83
2022/01/03 07:26:52;;;;;;;11.68;1.50;;;8.60;99.90;;;;;;5044745;28;20033;-84
2022/01/03 07:29:17;;;;;;;14.32;2.05;;;8.50;99.90;;;;;;5047098;28;20044;-84
2022/01/03 07:31:43;;;;;;;15.50;1.60;;;8.60;99.90;;;;;;5038568;28;20041;-81
2022/01/03 07:34:09;;;;;;;18.63;2.50;;;8.30;99.90;;;;;;5049633;28;20122;-83
2022/01/03 07:36:34;;;;;;;17.00;2.05;;;8.20;99.90;;;;;;5043581;28;20041;-81
2022/01/03 07:39:00;;;;;;;26.50;3.17;;;8.80;99.90;;;;;;5044959;28;20045;-82
2022/01/03 07:41:26;;;;;;;11.38;1.98;;;8.30;99.90;;;;;;5041319;28;20072;-81
2022/01/03 07:43:51;;;;;;;26.40;2.03;;;9.00;99.90;;;;;;5042647;28;20049;-82
2022/01/03 07:46:17;;;;;;;15.50;2.00;;;8.70;99.90;;;;;;5048518;28;20037;-84
2022/01/03 07:48:43;;;;;;;18.17;2.20;;;8.90;99.90;;;;;;5025496;28;20111;-83
2022/01/03 07:51:09;;;;;;;18.58;2.05;;;8.40;99.90;;;;;;5043946;28;20049;-84
2022/01/03 07:53:35;;;;;;;19.20;2.38;;;8.80;99.90;;;;;;5041080;28;20152;-83
2022/01/03 07:56:00;;;;;;;15.70;2.50;;;8.80;99.90;;;;;;5025643;28;20052;-81
2022/01/03 07:58:26;;;;;;;17.17;1.77;;;9.10;99.90;;;;;;5043164;28;20076;-82
2022/01/03 08:00:52;;;;;;;24.92;2.15;;;8.40;99.90;;;;;;5042608;28;20045;-81
2022/01/03 08:03:17;;;;;;;17.67;1.70;;;8.50;99.90;;;;;;5046275;28;20132;-81
2022/01/03 08:05:43;;;;;;;12.82;1.77;;;8.40;99.90;;;;;;5047053;28;20094;-82
2022/01/03 08:08:09;;;;;;;21.45;2.53;;;8.40;99.90;;;;;;5043893;28;20431;-82
2022/01/03 08:10:39;;;;;;;22.38;2.47;;;9.00;99.90;;;;;;5042807;28;20037;-84
2022/01/03 08:13:04;;;;;;;12.57;1.80;;;9.00;99.90;;;;;;5043591;28;20049;-83
2022/01/03 08:15:30;;;;;;;18.83;2.83;;;8.50;99.90;;;;;;5040770;28;20048;-82
2022/01/03 08:17:56;;;;;;;19.83;1.92;;;9.20;99.90;;;;;;5046132;28;20045;-81
2022/01/03 08:20:22;;;;;;;20.88;2.50;;;8.90;99.90;;;;;;5028175;28;20041;-81
2022/01/03 08:22:48;;;;;;;16.88;2.30;;;8.80;99.90;;;;;;5045980;28;20041;-82
2022/01/03 08:25:13;;;;;;;13.02;1.70;;;9.00;99.90;;;;;;5043817;28;20487;-81
2022/01/03 08:27:39;;;;;;;12.55;1.98;;;8.60;99.90;;;;;;5042610;28;20045;-82
2022/01/03 08:30:05;;;;;;;14.35;2.30;;;8.60;99.90;;;;;;5024111;28;20443;-83
2022/01/03 08:32:31;;;;;;;22.10;2.50;;;8.60;99.90;;;;;;5045596;28;20036;-81
2022/01/03 08:34:56;;;;;;;23.08;2.65;;;9.00;99.90;;;;;;5045791;28;20437;-81
2022/01/03 08:37:22;;;;;;;9.95;1.83;;;8.70;99.90;;;;;;5024502;28;20060;-81
2022/01/03 08:39:48;;;;;;;18.42;2.05;;;9.10;99.90;;;;;;5042260;28;20139;-81
2022/01/03 08:42:14;;;;;;;18.90;2.28;;;9.10;99.90;;;;;;5034165;28;20087;-81
2022/01/03 08:44:39;;;;;;;15.63;1.90;;;9.30;99.90;;;;;;5045592;28;20036;-80
2022/01/03 08:47:05;;;;;;;20.15;2.45;;;8.70;99.90;;;;;;5027669;28;20438;-81
2022/01/03 08:49:31;;;;;;;12.27;1.65;;;8.70;99.90;;;;;;5034277;28;20042;-82
2022/01/03 08:51:58;;;;;;;14.82;1.33;;;9.20;99.90;;;;;;5042047;28;20063;-80
2022/01/03 08:54:23;;;;;;;20.67;2.75;;;9.20;99.90;;;;;;5044011;28;20083;-81
2022/01/03 08:56:49;;;;;;;13.65;1.48;;;9.30;99.90;;;;;;5045695;28;20394;-80
2022/01/03 08:59:15;;;;;;;15.68;2.00;;;8.80;99.90;;;;;;5044038;28;20048;-81
2022/01/03 09:01:40;;;;;;;15.80;2.55;;;9.60;99.90;;;;;;5041706;28;20045;-82
2022/01/03 09:04:06;;;;;;;20.73;2.20;;;9.00;99.90;;;;;;5044410;28;20507;-82
2022/01/03 09:06:33;;;;;;;13.32;2.00;;;8.90;99.90;;;;;;5016550;28;20056;-82
2022/01/03 09:08:59;;;;;;;19.58;2.47;;;9.00;99.90;;;;;;5022677;28;20464;-83
2022/01/03 09:11:24;;;;;;;16.88;2.55;;;8.90;99.90;;;;;;5042810;28;20112;-79
2022/01/03 09:13:50;;;;;;;16.50;2.00;;;9.00;99.90;;;;;;5024949;28;20060;-83
2022/01/03 09:16:16;;;;;;;11.50;1.70;;;9.00;99.90;;;;;;5042524;28;20483;-83
2022/01/03 09:18:42;;;;;;;19.60;2.70;;;9.00;99.90;;;;;;5042704;28;20040;-85
2022/01/03 09:21:09;;;;;;;14.25;2.45;;;9.00;99.90;;;;;;5045253;28;20060;-84
2022/01/03 09:23:39;;;;;;;16.67;2.53;;;9.00;99.90;;;;;;5041790;28;20049;-81
2022/01/03 09:28:49;;;;;;;16.92;2.00;;;9.00;99.90;;;;;;5046107;28;20137;-82
2022/01/03 09:31:16;;;;;;;10.60;1.73;;;9.10;99.90;;;;;;5044678;28;20073;-79
2022/01/03 09:33:42;;;;;;;10.38;1.40;;;9.60;99.90;;;;;;5044701;28;20032;-83
2022/01/03 09:36:08;;;;;;;16.02;1.63;;;9.10;99.90;;;;;;5044506;28;20491;-81
2022/01/03 09:38:34;;;;;;;10.88;1.23;;;9.20;99.90;;;;;;5025146;28;20076;-79
2022/01/03 09:41:03;;;;;;;15.82;2.08;;;9.90;99.90;;;;;;5040735;28;20057;-81
2022/01/03 09:43:41;;;;;;;14.32;1.80;;;9.10;99.90;;;;;;5041879;28;20064;-83
2022/01/03 09:46:09;;;;;;;18.15;1.67;;;9.20;99.90;;;;;;5041688;28;20454;-85
2022/01/03 09:48:37;;;;;;;19.75;2.53;;;9.10;99.90;;;;;;5040919;28;20414;-81
2022/01/03 09:51:04;;;;;;;19.02;1.60;;;9.20;99.90;;;;;;5041765;28;20112;-83
2022/01/03 09:53:32;;;;;;;24.25;2.08;;;9.70;99.90;;;;;;5041612;28;20095;-81
2022/01/03 09:55:59;;;;;;;17.65;2.00;;;9.20;99.90;;;;;;5040667;28;20479;-83
2022/01/03 09:58:25;;;;;;;19.27;2.03;;;9.50;99.90;;;;;;5051125;28;20504;-83
2022/01/03 10:00:51;;;;;;;15.00;1.92;;;9.10;99.90;;;;;;5040796;28;20041;-80
2022/01/03 10:03:17;;;;;;;13.88;1.55;;;9.10;99.90;;;;;;5041511;28;20098;-82
2022/01/03 10:05:42;;;;;;;17.08;2.30;;;9.20;99.90;;;;;;5041117;28;20052;-82
2022/01/03 10:08:08;;;;;;;20.73;3.03;;;9.30;99.90;;;;;;5033031;28;20045;-82
2022/01/03 10:10:34;;;;;;;14.60;2.30;;;9.30;99.90;;;;;;5042775;28;20506;-81
2022/01/03 10:13:00;;;;;;;25.33;2.38;;;9.50;99.90;;;;;;5003749;28;20099;-81
2022/01/03 10:15:26;;;;;;;19.00;2.45;;;9.30;99.90;;;;;;5024082;28;20037;-82
2022/01/03 10:17:52;;;;;;;12.88;1.95;;;9.80;99.90;;;;;;5043967;28;20051;-84
2022/01/03 10:20:18;;;;;;;11.32;1.38;;;9.80;99.90;;;;;;5042401;28;20045;-85
2022/01/03 10:22:43;;;;;;;12.48;1.90;;;9.40;99.90;;;;;;5019966;28;20098;-82
2022/01/03 10:25:15;;;;;;;23.77;2.15;;;9.40;99.90;;;;;;5043575;28;20049;-81
2022/01/03 10:27:55;;;;;;;15.13;1.67;;;9.60;99.90;;;;;;5017398;28;20399;-81
2022/01/03 10:30:31;;;;;;;13.77;1.92;;;9.50;99.90;;;;;;5039576;28;20399;-90
2022/01/03 10:32:57;;;;;;;;;;;10.10;99.90;;;;;;5043301;28;20064;-81
2022/01/03 10:35:23;;;;;;;14.05;1.48;;;9.60;99.90;;;;;;5042720;28;20374;-83
2022/01/03 10:37:49;;;;;;;16.75;2.40;;;9.80;99.90;;;;;;5032396;28;20045;-82
2022/01/03 10:40:31;;;;;;;16.25;2.25;;;9.50;99.90;;;;;;5014369;28;20132;-83
2022/01/03 10:43:18;;;;;;;14.30;2.00;;;9.60;99.90;;;;;;5029396;28;20116;-85
2022/01/03 10:45:44;;;;;;;11.57;1.35;;;10.10;99.90;;;;;;5040108;28;20531;-84
2022/01/03 10:48:33;;;;;;;17.35;1.88;;;9.70;99.90;;;;;;5038380;28;20116;-84
2022/01/03 10:51:00;;;;;;;14.93;1.73;;;9.90;99.90;;;;;;5037480;28;20494;-84
2022/01/03 10:53:40;;;;;;;12.70;1.77;;;9.80;99.90;;;;;;5039877;28;20045;-87
2022/01/03 10:56:38;;;;;;;18.08;2.15;;;9.90;99.90;;;;;;5043537;28;20570;-84
2022/01/03 10:59:03;;;;;;;10.82;2.83;;;9.80;99.90;;;;;;5025873;28;20037;-84
2022/01/03 11:01:31;;;;;;;11.55;1.65;;;9.80;99.90;;;;;;5039706;28;20138;-84
2022/01/03 11:04:01;;;;;;;17.15;1.80;;;10.10;99.90;;;;;;5040556;28;20125;-81
2022/01/03 11:11:42;;;;;;;17.70;2.35;;;10.20;99.90;;;;;;5041520;28;20588;-80
2022/01/03 11:14:10;;;;;;;11.25;1.88;;;9.80;99.90;;;;;;5045992;28;20232;-84
2022/01/03 11:16:39;;;;;;;19.25;1.95;;;10.00;99.90;;;;;;5039824;28;20046;-84
2022/01/03 11:19:06;;;;;;;17.42;2.00;;;10.30;99.90;;;;;;5042971;28;20191;-85
2022/01/03 11:21:33;;;;;;;9.77;1.52;;;10.20;99.90;;;;;;5042537;28;20041;-81
2022/01/03 11:24:09;;;;;;;17.17;2.55;;;10.40;99.90;;;;;;5032310;28;20045;-82
2022/01/03 11:26:41;;;;;;;14.70;1.95;;;9.90;99.90;;;;;;5039947;28;20411;-83
2022/01/03 11:29:07;;;;;;;17.50;2.25;;;9.90;99.90;;;;;;5042744;28;20051;-83
2022/01/03 11:31:38;;;;;;;15.30;1.70;;;10.60;99.90;;;;;;5000337;28;20088;-82
2022/01/03 11:34:04;;;;;;;20.35;2.00;;;10.10;99.90;;;;;;5039797;28;20057;-84
2022/01/03 11:36:31;;;;;;;15.15;2.67;;;10.60;99.90;;;;;;5039597;28;20029;-83
2022/01/03 11:39:04;;;;;;;17.30;1.67;;;10.20;99.90;;;;;;5039507;28;20094;-86
2022/01/03 11:41:30;;;;;;;10.35;1.20;;;10.10;99.90;;;;;;5039716;28;20084;-83
2022/01/03 11:43:56;;;;;;;8.68;1.08;;;10.20;99.90;;;;;;5042223;28;20496;-84
2022/01/03 11:46:23;;;;;;;14.35;1.80;;;10.20;99.90;;;;;;5008727;28;20079;-82
2022/01/03 11:48:50;;;;;;;14.98;1.85;;;10.60;99.90;;;;;;5041332;28;20403;-82
2022/01/03 11:51:17;;;;;;;14.30;2.33;;;10.10;99.90;;;;;;5038403;28;20069;-82
2022/01/03 11:53:48;;;;;;;16.67;2.08;;;10.20;99.90;;;;;;5022116;28;20404;-81
2022/01/03 11:56:20;;;;;;;25.38;2.90;;;10.20;99.90;;;;;;5025178;28;20045;-82
2022/01/03 11:58:59;;;;;;;10.05;1.40;;;10.20;99.90;;;;;;5042425;28;20048;-82
2022/01/03 12:04:25;;;;;;;18.33;1.73;;;10.50;99.90;;;;;;5033895;28;20409;-80
2022/01/03 12:07:11;;;;;;;12.80;1.98;;;10.20;99.90;;;;;;5040345;28;20045;-81
2022/01/03 12:09:39;;;;;;;19.60;2.33;;;10.10;99.90;;;;;;5043148;28;20052;-80
2022/01/03 12:12:06;;;;;;;14.20;1.50;;;10.20;99.90;;;;;;5025191;28;20782;-80
2022/01/03 12:14:43;;;;;;;14.43;2.45;;;10.20;99.90;;;;;;5030669;28;20064;-79
2022/01/03 12:17:10;;;;;;;13.32;1.95;;;10.70;99.90;;;;;;5024903;28;20487;-81
2022/01/03 12:19:47;;;;;;;10.57;1.00;;;10.70;99.90;;;;;;5041734;28;20049;-82
2022/01/03 12:22:20;;;;;;;14.13;3.58;;;10.70;99.90;;;;;;5034914;28;20034;-82
2022/01/03 12:24:50;;;;;;;15.20;1.88;;;10.20;99.90;;;;;;5013699;28;20124;-80
2022/01/03 12:27:16;;;;;;;13.70;2.47;;;10.80;99.90;;;;;;5037123;28;20045;-82
2022/01/03 12:29:57;;;;;;;13.25;1.63;;;10.10;99.90;;;;;;5042591;28;20098;-83
2022/01/03 12:32:32;;;;;;;15.50;1.92;;;10.10;99.90;;;;;;5034782;28;20056;-81
2022/01/03 12:35:13;;;;;;;19.42;1.80;;;10.10;99.90;;;;;;5043369;28;20111;-81
2022/01/03 12:37:43;;;;;;;9.10;1.67;;;10.10;99.90;;;;;;5028816;28;20056;-80
2022/01/03 12:40:12;;;;;;;9.55;1.42;;;10.20;99.90;;;;;;5042418;28;20053;-82
2022/01/03 12:42:51;;;;;;;15.60;1.73;;;10.20;99.90;;;;;;5042187;28;20045;-83
2022/01/03 12:45:28;;;;;;;16.83;2.08;;;10.40;99.90;;;;;;5042485;28;20120;-81
2022/01/03 12:48:10;;;;;;;14.65;1.50;;;10.20;99.90;;;;;;5016849;28;20099;-79
2022/01/03 12:50:52;;;;;;;13.13;1.42;;;10.20;99.90;;;;;;5020259;28;20045;-82
2022/01/03 12:53:26;;;;;;;14.85;1.88;;;10.20;99.90;;;;;;5000795;28;20037;-81
2022/01/03 12:56:02;;;;;;;17.85;2.17;;;10.20;99.90;;;;;;5041649;28;20092;-80
2022/01/03 12:58:27;;;;;;;;;;;10.20;99.90;;;;;;5027855;28;20484;-83
2022/01/03 13:00:53;;;;;;;16.33;1.73;;;10.60;99.90;;;;;;5024153;28;19935;-83
2022/01/03 13:03:46;;;;;;;12.20;1.73;;;10.60;99.90;;;;;;5035947;28;20064;-81
2022/01/03 13:06:21;;;;;;;17.80;1.50;;;10.20;99.90;;;;;;5007377;28;20041;-81
2022/01/03 13:08:56;;;;;;;18.05;2.22;;;10.60;99.90;;;;;;5024379;28;20111;-82
2022/01/03 13:11:29;;;;;;;13.43;2.72;;;10.70;99.90;;;;;;5023975;28;20079;-84
2022/01/03 13:14:00;;;;;;;15.57;1.98;;;10.20;99.90;;;;;;5016505;28;20045;-81